Terminal Aerodrome Forecast
Issued by NWS Bismarck, ND

Home | Current Version | Previous Version | Text Only | Print | Product List | Glossary Off
Versions: 1 2 3 4 5 6 7 8 9 10 11 12 13 14 15 16 17 18 19 20 21 22 23 24 25 26 27

000
FTUS43 KBIS 280300 AAB
TAFISN
TAF AMD
KISN 280336Z 2804/2824 04005KT P6SM SCT015 OVC025
      TEMPO 2804/2807 3SM -SN
     FM281800 04008KT P6SM SCT025 BKN040=

USA.gov is the U.S. government's official web portal to all federal, state and local government web resources and services.